sensor_id;sensor_type;location;lat;lon;timestamp;P1;durP1;ratioP1;P2;durP2;ratioP2
5951;SDS011;3001;42.622;23.194;2023-05-20T00:01:25;6.60;;;5.93;;
5951;SDS011;3001;42.622;23.194;2023-05-20T00:03:52;7.23;;;6.53;;
5951;SDS011;3001;42.622;23.194;2023-05-20T00:06:18;6.80;;;6.37;;
5951;SDS011;3001;42.622;23.194;2023-05-20T00:08:45;6.83;;;6.30;;
5951;SDS011;3001;42.622;23.194;2023-05-20T00:11:12;6.80;;;5.97;;
5951;SDS011;3001;42.622;23.194;2023-05-20T00:13:40;6.90;;;6.50;;
5951;SDS011;3001;42.622;23.194;2023-05-20T00:16:06;7.27;;;6.57;;
5951;SDS011;3001;42.622;23.194;2023-05-20T00:18:33;7.27;;;6.70;;
5951;SDS011;3001;42.622;23.194;2023-05-20T00:21:00;7.20;;;6.57;;
5951;SDS011;3001;42.622;23.194;2023-05-20T00:23:26;6.37;;;5.90;;
5951;SDS011;3001;42.622;23.194;2023-05-20T00:25:53;7.37;;;6.57;;
5951;SDS011;3001;42.622;23.194;2023-05-20T00:28:20;9.33;;;7.17;;
5951;SDS011;3001;42.622;23.194;2023-05-20T00:30:49;9.03;;;6.83;;
5951;SDS011;3001;42.622;23.194;2023-05-20T00:33:15;8.77;;;7.20;;
5951;SDS011;3001;42.622;23.194;2023-05-20T00:35:42;7.63;;;7.00;;
5951;SDS011;3001;42.622;23.194;2023-05-20T00:38:09;7.50;;;6.73;;
5951;SDS011;3001;42.622;23.194;2023-05-20T00:40:35;10.23;;;7.27;;
5951;SDS011;3001;42.622;23.194;2023-05-20T00:43:02;7.23;;;6.53;;
5951;SDS011;3001;42.622;23.194;2023-05-20T00:45:29;7.07;;;6.43;;
5951;SDS011;3001;42.622;23.194;2023-05-20T00:47:57;7.67;;;7.17;;
5951;SDS011;3001;42.622;23.194;2023-05-20T00:50:26;8.03;;;7.43;;
5951;SDS011;3001;42.622;23.194;2023-05-20T00:52:53;7.63;;;6.80;;
5951;SDS011;3001;42.622;23.194;2023-05-20T00:55:20;7.17;;;6.67;;
5951;SDS011;3001;42.622;23.194;2023-05-20T00:57:47;6.70;;;6.30;;
5951;SDS011;3001;42.622;23.194;2023-05-20T01:00:15;6.57;;;6.10;;
5951;SDS011;3001;42.622;23.194;2023-05-20T01:02:41;6.77;;;5.90;;
5951;SDS011;3001;42.622;23.194;2023-05-20T01:05:09;7.00;;;6.13;;
5951;SDS011;3001;42.622;23.194;2023-05-20T01:07:36;6.07;;;5.60;;
5951;SDS011;3001;42.622;23.194;2023-05-20T01:10:03;6.37;;;5.97;;
5951;SDS011;3001;42.622;23.194;2023-05-20T01:12:33;6.07;;;5.57;;
5951;SDS011;3001;42.622;23.194;2023-05-20T01:15:04;5.97;;;5.57;;
5951;SDS011;3001;42.622;23.194;2023-05-20T01:17:35;6.93;;;6.33;;
5951;SDS011;3001;42.622;23.194;2023-05-20T01:20:04;6.07;;;5.60;;
5951;SDS011;3001;42.622;23.194;2023-05-20T01:22:36;7.63;;;6.90;;
5951;SDS011;3001;42.622;23.194;2023-05-20T01:25:03;6.63;;;6.23;;
5951;SDS011;3001;42.622;23.194;2023-05-20T01:27:30;6.33;;;5.93;;
5951;SDS011;3001;42.622;23.194;2023-05-20T01:29:57;7.97;;;6.03;;
5951;SDS011;3001;42.622;23.194;2023-05-20T01:32:25;7.17;;;6.57;;
5951;SDS011;3001;42.622;23.194;2023-05-20T01:34:56;6.93;;;6.23;;
5951;SDS011;3001;42.622;23.194;2023-05-20T01:37:24;9.73;;;6.40;;
5951;SDS011;3001;42.622;23.194;2023-05-20T01:39:54;6.13;;;5.67;;
5951;SDS011;3001;42.622;23.194;2023-05-20T01:42:21;6.10;;;5.80;;
5951;SDS011;3001;42.622;23.194;2023-05-20T01:44:51;7.47;;;6.60;;
5951;SDS011;3001;42.622;23.194;2023-05-20T01:47:18;9.17;;;6.33;;
5951;SDS011;3001;42.622;23.194;2023-05-20T01:49:45;7.80;;;7.10;;
5951;SDS011;3001;42.622;23.194;2023-05-20T01:52:13;7.57;;;6.87;;
5951;SDS011;3001;42.622;23.194;2023-05-20T01:54:40;7.37;;;6.47;;
5951;SDS011;3001;42.622;23.194;2023-05-20T01:57:08;7.57;;;6.80;;
5951;SDS011;3001;42.622;23.194;2023-05-20T01:59:35;7.80;;;7.23;;
5951;SDS011;3001;42.622;23.194;2023-05-20T02:02:01;7.10;;;6.50;;
5951;SDS011;3001;42.622;23.194;2023-05-20T02:04:28;12.27;;;7.77;;
5951;SDS011;3001;42.622;23.194;2023-05-20T02:06:55;7.43;;;6.90;;
5951;SDS011;3001;42.622;23.194;2023-05-20T02:09:21;7.70;;;6.90;;
5951;SDS011;3001;42.622;23.194;2023-05-20T02:11:48;7.93;;;7.23;;
5951;SDS011;3001;42.622;23.194;2023-05-20T02:14:16;7.63;;;7.00;;
5951;SDS011;3001;42.622;23.194;2023-05-20T02:16:43;7.87;;;7.17;;
5951;SDS011;3001;42.622;23.194;2023-05-20T02:19:11;7.57;;;7.10;;
5951;SDS011;3001;42.622;23.194;2023-05-20T02:21:38;7.73;;;7.13;;
5951;SDS011;3001;42.622;23.194;2023-05-20T02:24:05;9.03;;;7.83;;
5951;SDS011;3001;42.622;23.194;2023-05-20T02:26:31;8.50;;;7.50;;
5951;SDS011;3001;42.622;23.194;2023-05-20T02:28:59;8.13;;;6.57;;
5951;SDS011;3001;42.622;23.194;2023-05-20T02:31:27;7.20;;;6.60;;
5951;SDS011;3001;42.622;23.194;2023-05-20T02:33:53;7.70;;;6.90;;
5951;SDS011;3001;42.622;23.194;2023-05-20T02:36:20;7.33;;;6.73;;
5951;SDS011;3001;42.622;23.194;2023-05-20T02:38:47;7.17;;;6.47;;
5951;SDS011;3001;42.622;23.194;2023-05-20T02:41:13;7.03;;;6.30;;
5951;SDS011;3001;42.622;23.194;2023-05-20T02:43:40;7.37;;;6.67;;
5951;SDS011;3001;42.622;23.194;2023-05-20T02:46:09;7.53;;;6.83;;
5951;SDS011;3001;42.622;23.194;2023-05-20T02:48:37;7.33;;;6.50;;
5951;SDS011;3001;42.622;23.194;2023-05-20T02:51:04;7.00;;;6.40;;
5951;SDS011;3001;42.622;23.194;2023-05-20T02:53:30;7.07;;;6.37;;
5951;SDS011;3001;42.622;23.194;2023-05-20T02:55:57;6.37;;;5.87;;
5951;SDS011;3001;42.622;23.194;2023-05-20T02:58:25;7.93;;;7.20;;
5951;SDS011;3001;42.622;23.194;2023-05-20T03:00:53;7.60;;;6.80;;
5951;SDS011;3001;42.622;23.194;2023-05-20T03:03:22;8.10;;;7.30;;
5951;SDS011;3001;42.622;23.194;2023-05-20T03:05:50;7.80;;;7.10;;
5951;SDS011;3001;42.622;23.194;2023-05-20T03:08:17;6.83;;;6.33;;
5951;SDS011;3001;42.622;23.194;2023-05-20T03:10:45;6.97;;;6.47;;
5951;SDS011;3001;42.622;23.194;2023-05-20T03:13:12;7.23;;;6.60;;
5951;SDS011;3001;42.622;23.194;2023-05-20T03:15:39;8.50;;;6.10;;
5951;SDS011;3001;42.622;23.194;2023-05-20T03:18:08;6.67;;;6.23;;
5951;SDS011;3001;42.622;23.194;2023-05-20T03:20:35;6.87;;;6.40;;
5951;SDS011;3001;42.622;23.194;2023-05-20T03:23:03;10.37;;;6.40;;
5951;SDS011;3001;42.622;23.194;2023-05-20T03:25:31;7.50;;;6.60;;
5951;SDS011;3001;42.622;23.194;2023-05-20T03:27:58;7.90;;;7.00;;
5951;SDS011;3001;42.622;23.194;2023-05-20T03:30:24;8.10;;;7.30;;
5951;SDS011;3001;42.622;23.194;2023-05-20T03:32:51;7.73;;;6.97;;
5951;SDS011;3001;42.622;23.194;2023-05-20T03:35:18;7.00;;;6.50;;
5951;SDS011;3001;42.622;23.194;2023-05-20T03:37:45;7.80;;;7.20;;
5951;SDS011;3001;42.622;23.194;2023-05-20T03:40:13;7.03;;;6.43;;
5951;SDS011;3001;42.622;23.194;2023-05-20T03:42:40;10.23;;;7.43;;
5951;SDS011;3001;42.622;23.194;2023-05-20T03:45:07;7.60;;;7.00;;
5951;SDS011;3001;42.622;23.194;2023-05-20T03:47:34;8.10;;;7.50;;
5951;SDS011;3001;42.622;23.194;2023-05-20T03:50:01;7.80;;;7.10;;
5951;SDS011;3001;42.622;23.194;2023-05-20T03:52:27;8.23;;;7.57;;
5951;SDS011;3001;42.622;23.194;2023-05-20T03:54:54;8.20;;;7.70;;
5951;SDS011;3001;42.622;23.194;2023-05-20T03:57:22;8.13;;;7.33;;
5951;SDS011;3001;42.622;23.194;2023-05-20T03:59:49;7.50;;;6.80;;
5951;SDS011;3001;42.622;23.194;2023-05-20T04:02:16;8.07;;;7.47;;
5951;SDS011;3001;42.622;23.194;2023-05-20T04:04:43;7.97;;;7.20;;
5951;SDS011;3001;42.622;23.194;2023-05-20T04:07:09;7.97;;;7.23;;
5951;SDS011;3001;42.622;23.194;2023-05-20T04:09:36;7.77;;;7.13;;
5951;SDS011;3001;42.622;23.194;2023-05-20T04:12:03;7.80;;;7.00;;
5951;SDS011;3001;42.622;23.194;2023-05-20T04:14:32;7.13;;;6.57;;
5951;SDS011;3001;42.622;23.194;2023-05-20T04:17:00;8.27;;;6.90;;
5951;SDS011;3001;42.622;23.194;2023-05-20T04:19:27;8.97;;;8.07;;
5951;SDS011;3001;42.622;23.194;2023-05-20T04:21:54;8.07;;;7.37;;
5951;SDS011;3001;42.622;23.194;2023-05-20T04:24:21;7.87;;;7.37;;
5951;SDS011;3001;42.622;23.194;2023-05-20T04:26:49;8.27;;;7.47;;
5951;SDS011;3001;42.622;23.194;2023-05-20T04:29:16;8.20;;;7.53;;
5951;SDS011;3001;42.622;23.194;2023-05-20T04:31:44;7.87;;;7.37;;
5951;SDS011;3001;42.622;23.194;2023-05-20T04:34:11;8.07;;;7.23;;
5951;SDS011;3001;42.622;23.194;2023-05-20T04:36:37;10.20;;;7.90;;
5951;SDS011;3001;42.622;23.194;2023-05-20T04:39:04;8.03;;;7.33;;
5951;SDS011;3001;42.622;23.194;2023-05-20T04:41:33;11.70;;;7.50;;
5951;SDS011;3001;42.622;23.194;2023-05-20T04:44:00;8.17;;;7.57;;
5951;SDS011;3001;42.622;23.194;2023-05-20T04:46:27;8.17;;;6.90;;
5951;SDS011;3001;42.622;23.194;2023-05-20T04:48:56;7.70;;;7.10;;
5951;SDS011;3001;42.622;23.194;2023-05-20T04:51:23;7.50;;;6.73;;
5951;SDS011;3001;42.622;23.194;2023-05-20T04:53:50;8.63;;;8.00;;
5951;SDS011;3001;42.622;23.194;2023-05-20T04:56:16;9.73;;;7.37;;
5951;SDS011;3001;42.622;23.194;2023-05-20T04:58:43;13.43;;;8.30;;
5951;SDS011;3001;42.622;23.194;2023-05-20T05:01:10;11.40;;;8.00;;
5951;SDS011;3001;42.622;23.194;2023-05-20T05:03:37;13.60;;;8.73;;
5951;SDS011;3001;42.622;23.194;2023-05-20T05:06:05;13.57;;;8.63;;
5951;SDS011;3001;42.622;23.194;2023-05-20T05:08:31;8.47;;;7.67;;
5951;SDS011;3001;42.622;23.194;2023-05-20T05:10:58;9.23;;;8.07;;
5951;SDS011;3001;42.622;23.194;2023-05-20T05:13:25;8.13;;;7.63;;
5951;SDS011;3001;42.622;23.194;2023-05-20T05:15:56;8.27;;;7.73;;
5951;SDS011;3001;42.622;23.194;2023-05-20T05:18:24;8.03;;;7.43;;
5951;SDS011;3001;42.622;23.194;2023-05-20T05:20:57;7.73;;;7.33;;
5951;SDS011;3001;42.622;23.194;2023-05-20T05:23:26;9.40;;;7.27;;
5951;SDS011;3001;42.622;23.194;2023-05-20T05:25:52;7.33;;;6.70;;
5951;SDS011;3001;42.622;23.194;2023-05-20T05:28:19;11.13;;;7.73;;
5951;SDS011;3001;42.622;23.194;2023-05-20T05:30:46;9.37;;;8.57;;
5951;SDS011;3001;42.622;23.194;2023-05-20T05:33:13;8.03;;;7.43;;
5951;SDS011;3001;42.622;23.194;2023-05-20T05:35:40;11.27;;;7.90;;
5951;SDS011;3001;42.622;23.194;2023-05-20T05:38:06;8.33;;;7.67;;
5951;SDS011;3001;42.622;23.194;2023-05-20T05:40:35;12.40;;;8.10;;
5951;SDS011;3001;42.622;23.194;2023-05-20T05:43:01;9.43;;;8.53;;
5951;SDS011;3001;42.622;23.194;2023-05-20T05:45:28;9.23;;;8.03;;
5951;SDS011;3001;42.622;23.194;2023-05-20T05:47:55;8.60;;;8.00;;
5951;SDS011;3001;42.622;23.194;2023-05-20T05:50:21;8.93;;;8.13;;
5951;SDS011;3001;42.622;23.194;2023-05-20T05:52:48;8.57;;;7.97;;
5951;SDS011;3001;42.622;23.194;2023-05-20T05:55:15;8.30;;;7.73;;
5951;SDS011;3001;42.622;23.194;2023-05-20T05:57:43;12.80;;;8.57;;
5951;SDS011;3001;42.622;23.194;2023-05-20T06:00:10;9.93;;;8.80;;
5951;SDS011;3001;42.622;23.194;2023-05-20T06:02:37;8.60;;;7.90;;
5951;SDS011;3001;42.622;23.194;2023-05-20T06:05:04;7.97;;;7.40;;
5951;SDS011;3001;42.622;23.194;2023-05-20T06:07:32;9.67;;;7.87;;
5951;SDS011;3001;42.622;23.194;2023-05-20T06:09:58;9.40;;;8.00;;
5951;SDS011;3001;42.622;23.194;2023-05-20T06:12:25;10.30;;;9.10;;
5951;SDS011;3001;42.622;23.194;2023-05-20T06:14:54;10.47;;;7.77;;
5951;SDS011;3001;42.622;23.194;2023-05-20T06:17:20;8.27;;;7.53;;
5951;SDS011;3001;42.622;23.194;2023-05-20T06:19:47;9.57;;;8.43;;
5951;SDS011;3001;42.622;23.194;2023-05-20T06:22:14;9.37;;;7.50;;
5951;SDS011;3001;42.622;23.194;2023-05-20T06:24:40;7.20;;;6.77;;
5951;SDS011;3001;42.622;23.194;2023-05-20T06:27:07;7.80;;;7.10;;
5951;SDS011;3001;42.622;23.194;2023-05-20T06:29:34;8.40;;;7.97;;
5951;SDS011;3001;42.622;23.194;2023-05-20T06:32:02;9.10;;;7.90;;
5951;SDS011;3001;42.622;23.194;2023-05-20T06:34:29;9.90;;;9.13;;
5951;SDS011;3001;42.622;23.194;2023-05-20T06:36:55;9.00;;;8.27;;
5951;SDS011;3001;42.622;23.194;2023-05-20T06:39:22;9.60;;;8.90;;
5951;SDS011;3001;42.622;23.194;2023-05-20T06:41:49;8.77;;;8.17;;
5951;SDS011;3001;42.622;23.194;2023-05-20T06:44:16;9.43;;;8.53;;
5951;SDS011;3001;42.622;23.194;2023-05-20T06:46:43;8.70;;;7.90;;
5951;SDS011;3001;42.622;23.194;2023-05-20T06:49:11;10.07;;;9.17;;
5951;SDS011;3001;42.622;23.194;2023-05-20T06:51:37;9.80;;;8.90;;
5951;SDS011;3001;42.622;23.194;2023-05-20T06:54:04;9.43;;;8.57;;
5951;SDS011;3001;42.622;23.194;2023-05-20T06:56:31;9.27;;;8.50;;
5951;SDS011;3001;42.622;23.194;2023-05-20T06:58:57;9.43;;;8.60;;
5951;SDS011;3001;42.622;23.194;2023-05-20T07:01:24;9.77;;;8.97;;
5951;SDS011;3001;42.622;23.194;2023-05-20T07:03:51;9.80;;;9.10;;
5951;SDS011;3001;42.622;23.194;2023-05-20T07:06:19;9.87;;;9.00;;
5951;SDS011;3001;42.622;23.194;2023-05-20T07:08:46;10.07;;;9.10;;
5951;SDS011;3001;42.622;23.194;2023-05-20T07:11:12;10.90;;;9.07;;
5951;SDS011;3001;42.622;23.194;2023-05-20T07:13:39;8.10;;;7.37;;
5951;SDS011;3001;42.622;23.194;2023-05-20T07:16:05;11.73;;;8.37;;
5951;SDS011;3001;42.622;23.194;2023-05-20T07:18:32;8.50;;;7.83;;
5951;SDS011;3001;42.622;23.194;2023-05-20T07:20:59;8.23;;;7.40;;
5951;SDS011;3001;42.622;23.194;2023-05-20T07:23:27;8.23;;;7.53;;
5951;SDS011;3001;42.622;23.194;2023-05-20T07:25:54;8.33;;;7.50;;
5951;SDS011;3001;42.622;23.194;2023-05-20T07:28:20;8.97;;;7.13;;
5951;SDS011;3001;42.622;23.194;2023-05-20T07:30:47;7.23;;;6.60;;
5951;SDS011;3001;42.622;23.194;2023-05-20T07:33:15;6.70;;;5.97;;
5951;SDS011;3001;42.622;23.194;2023-05-20T07:35:42;7.60;;;7.00;;
5951;SDS011;3001;42.622;23.194;2023-05-20T07:38:09;6.23;;;5.80;;
5951;SDS011;3001;42.622;23.194;2023-05-20T07:40:37;7.13;;;6.63;;
5951;SDS011;3001;42.622;23.194;2023-05-20T07:43:06;7.30;;;6.60;;
5951;SDS011;3001;42.622;23.194;2023-05-20T07:45:33;6.23;;;5.93;;
5951;SDS011;3001;42.622;23.194;2023-05-20T07:48:00;6.37;;;5.97;;
5951;SDS011;3001;42.622;23.194;2023-05-20T07:50:27;6.70;;;6.10;;
5951;SDS011;3001;42.622;23.194;2023-05-20T07:52:54;6.90;;;6.50;;
5951;SDS011;3001;42.622;23.194;2023-05-20T07:55:21;7.87;;;6.27;;
5951;SDS011;3001;42.622;23.194;2023-05-20T07:57:49;9.33;;;6.17;;
5951;SDS011;3001;42.622;23.194;2023-05-20T08:00:16;6.37;;;5.97;;
5951;SDS011;3001;42.622;23.194;2023-05-20T08:02:43;6.67;;;6.17;;
5951;SDS011;3001;42.622;23.194;2023-05-20T08:05:09;6.93;;;6.33;;
5951;SDS011;3001;42.622;23.194;2023-05-20T08:07:36;6.87;;;6.27;;
5951;SDS011;3001;42.622;23.194;2023-05-20T08:10:03;7.60;;;6.97;;
5951;SDS011;3001;42.622;23.194;2023-05-20T08:12:30;6.23;;;5.77;;
5951;SDS011;3001;42.622;23.194;2023-05-20T08:14:58;6.87;;;6.20;;
5951;SDS011;3001;42.622;23.194;2023-05-20T08:17:25;6.70;;;6.20;;
5951;SDS011;3001;42.622;23.194;2023-05-20T08:19:52;6.80;;;6.40;;
5951;SDS011;3001;42.622;23.194;2023-05-20T08:22:18;6.50;;;5.97;;
5951;SDS011;3001;42.622;23.194;2023-05-20T08:24:45;6.63;;;6.20;;
5951;SDS011;3001;42.622;23.194;2023-05-20T08:27:11;7.20;;;6.20;;
5951;SDS011;3001;42.622;23.194;2023-05-20T08:29:38;7.47;;;6.33;;
5951;SDS011;3001;42.622;23.194;2023-05-20T08:32:06;6.07;;;5.77;;
5951;SDS011;3001;42.622;23.194;2023-05-20T08:34:33;6.60;;;6.30;;
5951;SDS011;3001;42.622;23.194;2023-05-20T08:37:00;6.77;;;6.17;;
5951;SDS011;3001;42.622;23.194;2023-05-20T08:39:27;6.67;;;6.37;;
5951;SDS011;3001;42.622;23.194;2023-05-20T08:41:55;6.90;;;6.43;;
5951;SDS011;3001;42.622;23.194;2023-05-20T08:44:23;6.50;;;5.83;;
5951;SDS011;3001;42.622;23.194;2023-05-20T08:46:51;7.13;;;6.20;;
5951;SDS011;3001;42.622;23.194;2023-05-20T08:49:19;7.00;;;6.03;;
5951;SDS011;3001;42.622;23.194;2023-05-20T08:51:46;7.53;;;6.03;;
5951;SDS011;3001;42.622;23.194;2023-05-20T08:54:13;7.27;;;6.30;;
5951;SDS011;3001;42.622;23.194;2023-05-20T08:56:42;7.03;;;6.53;;
5951;SDS011;3001;42.622;23.194;2023-05-20T08:59:09;6.80;;;6.40;;
5951;SDS011;3001;42.622;23.194;2023-05-20T09:01:38;7.30;;;6.83;;
5951;SDS011;3001;42.622;23.194;2023-05-20T09:04:08;8.00;;;6.73;;
5951;SDS011;3001;42.622;23.194;2023-05-20T09:06:42;8.97;;;7.23;;
5951;SDS011;3001;42.622;23.194;2023-05-20T09:09:09;8.33;;;7.00;;
5951;SDS011;3001;42.622;23.194;2023-05-20T09:11:37;7.43;;;6.80;;
5951;SDS011;3001;42.622;23.194;2023-05-20T09:14:04;7.77;;;7.37;;
5951;SDS011;3001;42.622;23.194;2023-05-20T09:16:31;7.97;;;6.90;;
5951;SDS011;3001;42.622;23.194;2023-05-20T09:18:58;7.60;;;6.53;;
5951;SDS011;3001;42.622;23.194;2023-05-20T09:21:25;7.47;;;7.07;;
5951;SDS011;3001;42.622;23.194;2023-05-20T09:23:53;6.30;;;5.83;;
5951;SDS011;3001;42.622;23.194;2023-05-20T09:26:21;7.17;;;6.30;;
5951;SDS011;3001;42.622;23.194;2023-05-20T09:28:48;6.93;;;6.43;;
5951;SDS011;3001;42.622;23.194;2023-05-20T09:31:15;6.73;;;6.33;;
5951;SDS011;3001;42.622;23.194;2023-05-20T09:33:42;10.77;;;6.70;;
5951;SDS011;3001;42.622;23.194;2023-05-20T09:36:09;7.33;;;6.73;;
5951;SDS011;3001;42.622;23.194;2023-05-20T09:38:37;7.17;;;6.77;;
5951;SDS011;3001;42.622;23.194;2023-05-20T09:41:06;6.50;;;6.00;;
5951;SDS011;3001;42.622;23.194;2023-05-20T09:43:36;7.13;;;6.57;;
5951;SDS011;3001;42.622;23.194;2023-05-20T09:46:04;6.83;;;6.40;;
5951;SDS011;3001;42.622;23.194;2023-05-20T09:48:32;7.60;;;6.90;;
5951;SDS011;3001;42.622;23.194;2023-05-20T09:51:01;7.03;;;6.63;;
5951;SDS011;3001;42.622;23.194;2023-05-20T09:53:29;7.57;;;7.10;;
5951;SDS011;3001;42.622;23.194;2023-05-20T09:55:56;6.47;;;6.07;;
5951;SDS011;3001;42.622;23.194;2023-05-20T09:58:25;8.03;;;7.23;;
5951;SDS011;3001;42.622;23.194;2023-05-20T10:00:52;7.73;;;7.27;;
5951;SDS011;3001;42.622;23.194;2023-05-20T10:03:20;6.93;;;6.57;;
5951;SDS011;3001;42.622;23.194;2023-05-20T10:05:51;6.97;;;6.63;;
5951;SDS011;3001;42.622;23.194;2023-05-20T10:08:34;8.10;;;7.50;;
5951;SDS011;3001;42.622;23.194;2023-05-20T10:11:11;6.83;;;6.30;;
5951;SDS011;3001;42.622;23.194;2023-05-20T10:13:52;7.17;;;6.57;;
5951;SDS011;3001;42.622;23.194;2023-05-20T10:16:33;7.10;;;6.50;;
5951;SDS011;3001;42.622;23.194;2023-05-20T10:19:11;7.00;;;6.57;;
5951;SDS011;3001;42.622;23.194;2023-05-20T10:21:55;7.27;;;6.67;;
5951;SDS011;3001;42.622;23.194;2023-05-20T10:24:28;6.97;;;6.43;;
5951;SDS011;3001;42.622;23.194;2023-05-20T10:26:56;6.87;;;6.47;;
5951;SDS011;3001;42.622;23.194;2023-05-20T10:29:25;6.40;;;6.10;;
5951;SDS011;3001;42.622;23.194;2023-05-20T10:31:52;5.97;;;5.67;;
5951;SDS011;3001;42.622;23.194;2023-05-20T10:34:19;6.43;;;6.03;;
5951;SDS011;3001;42.622;23.194;2023-05-20T10:36:56;6.77;;;6.17;;
5951;SDS011;3001;42.622;23.194;2023-05-20T10:39:24;5.67;;;5.17;;
5951;SDS011;3001;42.622;23.194;2023-05-20T10:41:52;5.70;;;5.30;;
5951;SDS011;3001;42.622;23.194;2023-05-20T10:44:19;6.37;;;5.97;;
5951;SDS011;3001;42.622;23.194;2023-05-20T10:46:47;6.47;;;6.07;;
5951;SDS011;3001;42.622;23.194;2023-05-20T10:49:31;6.50;;;5.67;;
5951;SDS011;3001;42.622;23.194;2023-05-20T10:51:59;7.57;;;5.63;;
5951;SDS011;3001;42.622;23.194;2023-05-20T10:54:25;5.83;;;5.43;;
5951;SDS011;3001;42.622;23.194;2023-05-20T10:56:53;5.83;;;5.30;;
5951;SDS011;3001;42.622;23.194;2023-05-20T10:59:20;5.57;;;5.20;;
5951;SDS011;3001;42.622;23.194;2023-05-20T11:01:49;6.50;;;5.27;;
5951;SDS011;3001;42.622;23.194;2023-05-20T11:04:16;7.23;;;5.03;;
5951;SDS011;3001;42.622;23.194;2023-05-20T11:06:48;4.70;;;4.40;;
5951;SDS011;3001;42.622;23.194;2023-05-20T11:09:16;5.27;;;4.87;;
5951;SDS011;3001;42.622;23.194;2023-05-20T11:11:43;4.63;;;4.23;;
5951;SDS011;3001;42.622;23.194;2023-05-20T11:14:09;6.60;;;6.00;;
5951;SDS011;3001;42.622;23.194;2023-05-20T11:16:39;5.30;;;4.60;;
5951;SDS011;3001;42.622;23.194;2023-05-20T11:19:07;5.93;;;5.43;;
5951;SDS011;3001;42.622;23.194;2023-05-20T11:21:34;6.40;;;5.00;;
5951;SDS011;3001;42.622;23.194;2023-05-20T11:24:08;5.60;;;5.13;;
5951;SDS011;3001;42.622;23.194;2023-05-20T11:26:35;5.27;;;4.80;;
5951;SDS011;3001;42.622;23.194;2023-05-20T11:29:02;6.37;;;4.83;;
5951;SDS011;3001;42.622;23.194;2023-05-20T11:31:29;5.23;;;4.73;;
5951;SDS011;3001;42.622;23.194;2023-05-20T12:17:47;6.00;;;5.50;;
5951;SDS011;3001;42.622;23.194;2023-05-20T12:20:15;5.40;;;5.10;;
5951;SDS011;3001;42.622;23.194;2023-05-20T12:22:43;5.40;;;5.10;;
5951;SDS011;3001;42.622;23.194;2023-05-20T12:25:10;5.60;;;5.20;;
5951;SDS011;3001;42.622;23.194;2023-05-20T12:27:38;5.73;;;5.43;;
5951;SDS011;3001;42.622;23.194;2023-05-20T12:30:06;6.57;;;5.80;;
5951;SDS011;3001;42.622;23.194;2023-05-20T12:32:33;5.37;;;4.90;;
5951;SDS011;3001;42.622;23.194;2023-05-20T12:35:02;10.03;;;5.90;;
5951;SDS011;3001;42.622;23.194;2023-05-20T12:37:28;5.87;;;5.57;;
5951;SDS011;3001;42.622;23.194;2023-05-20T12:39:56;5.40;;;5.00;;
5951;SDS011;3001;42.622;23.194;2023-05-20T12:42:22;5.87;;;5.57;;
5951;SDS011;3001;42.622;23.194;2023-05-20T12:44:49;13.90;;;6.57;;
5951;SDS011;3001;42.622;23.194;2023-05-20T12:47:16;6.87;;;6.23;;
5951;SDS011;3001;42.622;23.194;2023-05-20T12:49:44;6.17;;;5.80;;
5951;SDS011;3001;42.622;23.194;2023-05-20T12:52:12;5.57;;;5.27;;
5951;SDS011;3001;42.622;23.194;2023-05-20T12:54:38;5.13;;;4.90;;
5951;SDS011;3001;42.622;23.194;2023-05-20T12:57:05;5.60;;;5.20;;
5951;SDS011;3001;42.622;23.194;2023-05-20T12:59:32;5.37;;;5.07;;
5951;SDS011;3001;42.622;23.194;2023-05-20T13:01:58;5.43;;;5.13;;
5951;SDS011;3001;42.622;23.194;2023-05-20T13:04:25;7.20;;;5.43;;
5951;SDS011;3001;42.622;23.194;2023-05-20T13:06:51;5.80;;;5.40;;
5951;SDS011;3001;42.622;23.194;2023-05-20T13:09:20;5.57;;;5.07;;
5951;SDS011;3001;42.622;23.194;2023-05-20T13:11:46;5.57;;;5.23;;
5951;SDS011;3001;42.622;23.194;2023-05-20T13:14:13;7.40;;;6.00;;
5951;SDS011;3001;42.622;23.194;2023-05-20T13:16:40;6.17;;;5.77;;
5951;SDS011;3001;42.622;23.194;2023-05-20T13:19:06;5.53;;;5.03;;
5951;SDS011;3001;42.622;23.194;2023-05-20T13:21:33;6.10;;;5.70;;
5951;SDS011;3001;42.622;23.194;2023-05-20T13:24:00;6.13;;;5.57;;
5951;SDS011;3001;42.622;23.194;2023-05-20T13:26:28;6.03;;;5.63;;
5951;SDS011;3001;42.622;23.194;2023-05-20T13:28:54;6.20;;;5.80;;
5951;SDS011;3001;42.622;23.194;2023-05-20T13:31:21;5.23;;;4.90;;
5951;SDS011;3001;42.622;23.194;2023-05-20T13:33:48;4.80;;;4.60;;
5951;SDS011;3001;42.622;23.194;2023-05-20T13:36:17;5.17;;;4.80;;
5951;SDS011;3001;42.622;23.194;2023-05-20T13:38:43;8.83;;;5.33;;
5951;SDS011;3001;42.622;23.194;2023-05-20T13:41:10;5.77;;;5.37;;
5951;SDS011;3001;42.622;23.194;2023-05-20T13:43:38;5.50;;;5.00;;
5951;SDS011;3001;42.622;23.194;2023-05-20T13:46:06;5.17;;;4.87;;
5951;SDS011;3001;42.622;23.194;2023-05-20T13:48:32;5.17;;;4.83;;
5951;SDS011;3001;42.622;23.194;2023-05-20T13:50:59;4.67;;;4.43;;
5951;SDS011;3001;42.622;23.194;2023-05-20T13:53:26;4.70;;;4.30;;
5951;SDS011;3001;42.622;23.194;2023-05-20T13:55:53;5.47;;;5.07;;
5951;SDS011;3001;42.622;23.194;2023-05-20T13:58:19;5.07;;;4.80;;
5951;SDS011;3001;42.622;23.194;2023-05-20T14:00:47;4.57;;;4.37;;
5951;SDS011;3001;42.622;23.194;2023-05-20T14:03:14;4.73;;;4.43;;
5951;SDS011;3001;42.622;23.194;2023-05-20T14:05:41;4.50;;;4.30;;
5951;SDS011;3001;42.622;23.194;2023-05-20T14:08:08;4.97;;;4.00;;
5951;SDS011;3001;42.622;23.194;2023-05-20T14:10:34;4.17;;;3.97;;
5951;SDS011;3001;42.622;23.194;2023-05-20T14:13:01;4.43;;;4.23;;
5951;SDS011;3001;42.622;23.194;2023-05-20T14:15:27;4.57;;;4.27;;
5951;SDS011;3001;42.622;23.194;2023-05-20T14:17:56;4.40;;;4.20;;
5951;SDS011;3001;42.622;23.194;2023-05-20T14:20:23;4.73;;;4.40;;
5951;SDS011;3001;42.622;23.194;2023-05-20T14:22:50;4.10;;;3.80;;
5951;SDS011;3001;42.622;23.194;2023-05-20T14:25:17;4.83;;;4.37;;
5951;SDS011;3001;42.622;23.194;2023-05-20T14:27:44;5.33;;;5.03;;
5951;SDS011;3001;42.622;23.194;2023-05-20T14:30:11;4.57;;;4.23;;
5951;SDS011;3001;42.622;23.194;2023-05-20T14:32:38;4.63;;;4.33;;
5951;SDS011;3001;42.622;23.194;2023-05-20T14:35:07;5.00;;;4.60;;
5951;SDS011;3001;42.622;23.194;2023-05-20T14:37:34;5.33;;;4.63;;
5951;SDS011;3001;42.622;23.194;2023-05-20T14:40:00;4.37;;;4.17;;
5951;SDS011;3001;42.622;23.194;2023-05-20T14:42:27;5.20;;;4.80;;
5951;SDS011;3001;42.622;23.194;2023-05-20T14:44:54;5.37;;;5.00;;
5951;SDS011;3001;42.622;23.194;2023-05-20T14:47:20;5.07;;;4.80;;
5951;SDS011;3001;42.622;23.194;2023-05-20T14:49:47;5.87;;;4.60;;
5951;SDS011;3001;42.622;23.194;2023-05-20T14:52:16;4.80;;;4.57;;
5951;SDS011;3001;42.622;23.194;2023-05-20T14:54:42;6.13;;;5.73;;
5951;SDS011;3001;42.622;23.194;2023-05-20T14:57:09;4.87;;;4.47;;
5951;SDS011;3001;42.622;23.194;2023-05-20T14:59:36;4.60;;;4.40;;
5951;SDS011;3001;42.622;23.194;2023-05-20T15:02:03;7.13;;;4.80;;
5951;SDS011;3001;42.622;23.194;2023-05-20T15:04:30;4.37;;;4.17;;
5951;SDS011;3001;42.622;23.194;2023-05-20T15:06:57;4.73;;;4.43;;
5951;SDS011;3001;42.622;23.194;2023-05-20T15:09:25;4.33;;;3.93;;
5951;SDS011;3001;42.622;23.194;2023-05-20T15:11:52;4.40;;;4.00;;
5951;SDS011;3001;42.622;23.194;2023-05-20T15:14:18;4.10;;;3.90;;
5951;SDS011;3001;42.622;23.194;2023-05-20T15:16:45;4.33;;;4.03;;
5951;SDS011;3001;42.622;23.194;2023-05-20T15:19:12;4.40;;;4.20;;
5951;SDS011;3001;42.622;23.194;2023-05-20T15:21:38;4.30;;;3.83;;
5951;SDS011;3001;42.622;23.194;2023-05-20T15:24:05;3.97;;;3.77;;
5951;SDS011;3001;42.622;23.194;2023-05-20T15:26:34;4.20;;;3.77;;
5951;SDS011;3001;42.622;23.194;2023-05-20T15:29:01;3.97;;;3.77;;
5951;SDS011;3001;42.622;23.194;2023-05-20T15:31:28;4.53;;;3.83;;
5951;SDS011;3001;42.622;23.194;2023-05-20T15:33:54;4.47;;;4.07;;
5951;SDS011;3001;42.622;23.194;2023-05-20T15:36:22;3.67;;;3.47;;
5951;SDS011;3001;42.622;23.194;2023-05-20T15:38:49;4.03;;;3.73;;
5951;SDS011;3001;42.622;23.194;2023-05-20T15:41:16;9.13;;;4.10;;
5951;SDS011;3001;42.622;23.194;2023-05-20T15:43:44;3.60;;;3.40;;
5951;SDS011;3001;42.622;23.194;2023-05-20T15:46:11;3.83;;;3.60;;